Time;durP1;ratioP1;P1;durP2;ratioP2;P2;SDS_P1;SDS_P2;PMS_P1;PMS_P2;Temp;Humidity;BMP_temperature;BMP_pressure;BME280_temperature;BME280_humidity;BME280_pressure;Samples;Min_cycle;Max_cycle;Signal;HPM_P1;HPM_P2
2022/01/29 00:01:09;;;;;;;3.33;2.67;;;22.00;33.40;;;;;;5040547;28;20065;-45
2022/01/29 00:03:36;;;;;;;3.38;2.58;;;22.00;33.40;;;;;;5017997;28;20051;-47
2022/01/29 00:06:02;;;;;;;3.13;2.72;;;22.00;33.40;;;;;;5039449;28;20036;-48
2022/01/29 00:08:28;;;;;;;3.45;2.80;;;22.00;33.40;;;;;;5047152;28;20339;-46
2022/01/29 00:11:01;;;;;;;3.45;2.85;;;22.10;33.40;;;;;;5047924;28;20040;-45
2022/01/29 00:13:26;;;;;;;3.17;2.63;;;22.10;33.40;;;;;;5049660;28;20042;-44
2022/01/29 00:15:52;;;;;;;3.63;2.75;;;22.00;33.30;;;;;;5034996;28;20344;-45
2022/01/29 00:18:18;;;;;;;3.38;2.58;;;22.10;33.40;;;;;;5036035;28;20025;-45
2022/01/29 00:20:44;;;;;;;4.28;3.05;;;22.10;33.30;;;;;;5046123;28;20032;-44
2022/01/29 00:23:10;;;;;;;3.67;2.55;;;22.10;33.30;;;;;;5046425;28;20511;-43
2022/01/29 00:25:35;;;;;;;3.83;2.70;;;22.10;33.30;;;;;;5054988;28;20340;-50
2022/01/29 00:28:01;;;;;;;4.00;2.80;;;22.00;33.20;;;;;;5038929;28;20029;-44
2022/01/29 00:30:36;;;;;;;4.68;3.30;;;22.10;33.30;;;;;;5043279;28;20032;-45
2022/01/29 00:33:01;;;;;;;4.00;3.10;;;22.00;33.20;;;;;;5053810;28;20029;-45
2022/01/29 00:35:27;;;;;;;4.22;2.78;;;22.10;33.30;;;;;;5044758;28;20051;-47
2022/01/29 00:37:53;;;;;;;4.13;3.25;;;22.10;33.30;;;;;;5035535;28;20029;-44
2022/01/29 00:40:21;;;;;;;3.38;2.88;;;22.00;33.20;;;;;;5034777;28;20091;-46
2022/01/29 00:42:48;;;;;;;3.83;2.88;;;22.00;33.20;;;;;;5047380;28;20040;-45
2022/01/29 00:45:14;;;;;;;4.63;3.10;;;22.00;33.30;;;;;;5047077;28;20048;-45
2022/01/29 00:47:40;;;;;;;4.30;2.65;;;22.00;33.30;;;;;;5054605;28;20052;-43
2022/01/29 00:50:07;;;;;;;3.35;2.63;;;22.00;33.30;;;;;;5048377;28;20376;-47
2022/01/29 00:52:33;;;;;;;3.22;2.70;;;22.00;33.30;;;;;;5053886;28;20029;-46
2022/01/29 00:54:58;;;;;;;3.58;2.80;;;22.00;33.30;;;;;;5050315;28;20041;-45
2022/01/29 00:57:28;;;;;;;3.15;2.80;;;22.00;33.30;;;;;;5054801;28;20040;-43
2022/01/29 00:59:54;;;;;;;2.53;2.20;;;22.00;33.40;;;;;;5049294;28;20108;-44
2022/01/29 01:02:20;;;;;;;3.45;2.78;;;22.00;33.40;;;;;;5035082;28;20386;-44
2022/01/29 01:04:46;;;;;;;4.28;2.80;;;22.00;33.40;;;;;;5047379;28;20071;-44
2022/01/29 01:07:12;;;;;;;3.33;2.70;;;22.00;33.40;;;;;;5054360;28;20116;-48
2022/01/29 01:09:38;;;;;;;3.55;2.53;;;22.00;33.40;;;;;;5034042;28;20191;-46
2022/01/29 01:12:05;;;;;;;3.17;2.70;;;22.00;33.40;;;;;;5034856;28;20022;-49
2022/01/29 01:14:30;;;;;;;3.05;2.47;;;21.90;33.40;;;;;;5045715;28;20044;-49
2022/01/29 01:16:56;;;;;;;4.13;2.63;;;21.90;33.40;;;;;;5055517;28;20115;-48
2022/01/29 01:19:25;;;;;;;3.67;2.63;;;21.90;33.40;;;;;;5045821;28;20052;-46
2022/01/29 01:21:55;;;;;;;3.67;2.80;;;21.90;33.40;;;;;;5052881;28;20433;-46
2022/01/29 01:24:21;;;;;;;3.22;2.70;;;21.90;33.40;;;;;;5052330;28;20029;-45
2022/01/29 01:26:48;;;;;;;4.40;2.67;;;22.00;33.50;;;;;;5053979;28;20033;-48
2022/01/29 01:29:13;;;;;;;2.88;2.40;;;21.90;33.50;;;;;;5044981;28;20025;-49
2022/01/29 01:31:39;;;;;;;3.20;2.60;;;21.90;33.50;;;;;;5036227;28;20040;-46
2022/01/29 01:34:07;;;;;;;4.00;2.38;;;21.90;33.50;;;;;;5034461;28;20100;-47
2022/01/29 01:36:38;;;;;;;3.30;2.58;;;21.90;33.50;;;;;;5035231;28;20112;-44
2022/01/29 01:39:08;;;;;;;3.05;2.47;;;21.90;33.50;;;;;;5049711;28;20030;-44
2022/01/29 01:41:39;;;;;;;3.42;2.80;;;21.90;33.50;;;;;;5050745;28;20420;-47
2022/01/29 01:44:09;;;;;;;3.83;2.53;;;21.90;33.50;;;;;;5040788;28;20029;-49
2022/01/29 01:46:34;;;;;;;3.40;2.30;;;21.90;33.60;;;;;;5050739;28;20048;-48
2022/01/29 01:49:00;;;;;;;3.35;2.85;;;21.90;33.60;;;;;;5053430;28;20115;-48
2022/01/29 01:51:26;;;;;;;2.75;2.35;;;21.80;33.60;;;;;;5053732;28;20052;-48
2022/01/29 01:53:52;;;;;;;3.55;2.50;;;21.90;33.60;;;;;;5019275;28;20033;-44
2022/01/29 01:56:18;;;;;;;3.50;2.58;;;21.80;33.60;;;;;;5044241;28;20330;-48
2022/01/29 01:58:44;;;;;;;3.70;3.00;;;21.80;33.60;;;;;;5043605;28;20102;-46
2022/01/29 02:01:10;;;;;;;3.05;2.38;;;21.80;33.60;;;;;;5041650;28;20033;-46
2022/01/29 02:03:35;;;;;;;3.67;2.47;;;21.80;33.60;;;;;;5055815;28;20028;-45
2022/01/29 02:06:01;;;;;;;2.72;2.05;;;21.80;33.60;;;;;;5046051;28;20033;-46
2022/01/29 02:08:27;;;;;;;2.92;2.38;;;21.80;33.70;;;;;;5045799;28;20043;-48
2022/01/29 02:11:04;;;;;;;2.80;2.20;;;21.80;33.70;;;;;;5046555;28;20049;-47
2022/01/29 02:13:30;;;;;;;2.85;2.17;;;21.80;33.70;;;;;;5037960;28;20063;-45
2022/01/29 02:15:56;;;;;;;3.08;2.10;;;21.80;33.70;;;;;;5043845;28;20076;-48
2022/01/29 02:18:22;;;;;;;3.10;2.30;;;21.80;33.70;;;;;;5045417;28;20025;-45
2022/01/29 02:20:49;;;;;;;3.35;2.40;;;21.80;33.80;;;;;;5056356;28;20040;-46
2022/01/29 02:23:17;;;;;;;3.72;2.28;;;21.80;33.90;;;;;;5056400;28;20482;-45
2022/01/29 02:25:47;;;;;;;2.80;2.22;;;21.70;33.90;;;;;;5055277;28;20389;-46
2022/01/29 02:28:16;;;;;;;2.92;2.22;;;21.70;33.90;;;;;;5056409;28;20139;-53
2022/01/29 02:30:59;;;;;;;3.53;2.13;;;21.70;33.90;;;;;;5049265;28;20029;-49
2022/01/29 02:33:26;;;;;;;2.90;2.00;;;21.70;33.90;;;;;;5037408;28;20052;-49
2022/01/29 02:35:53;;;;;;;2.60;2.00;;;21.70;33.90;;;;;;5044681;28;20032;-47
2022/01/29 02:38:22;;;;;;;2.90;2.10;;;21.70;33.90;;;;;;5055811;28;20056;-47
2022/01/29 02:40:51;;;;;;;3.42;2.28;;;21.70;34.00;;;;;;5042060;28;20040;-47
2022/01/29 02:43:27;;;;;;;1.95;1.70;;;21.70;34.00;;;;;;5040913;28;20035;-49
2022/01/29 02:45:54;;;;;;;2.17;1.83;;;21.70;34.00;;;;;;5049561;28;20040;-48
2022/01/29 02:48:22;;;;;;;1.90;1.70;;;21.70;34.10;;;;;;5049135;28;20029;-49
2022/01/29 02:50:48;;;;;;;2.80;2.10;;;21.70;34.10;;;;;;5040939;28;20029;-46
2022/01/29 02:53:14;;;;;;;2.88;1.67;;;21.70;34.10;;;;;;5043094;28;20035;-45
2022/01/29 02:55:40;;;;;;;1.90;1.65;;;21.70;34.10;;;;;;5051129;28;20120;-46
2022/01/29 02:58:06;;;;;;;2.65;1.63;;;21.70;34.10;;;;;;5054571;28;20021;-47
2022/01/29 03:00:32;;;;;;;2.38;1.55;;;21.70;34.20;;;;;;5037746;28;20515;-43
2022/01/29 03:02:58;;;;;;;2.88;1.75;;;21.70;34.20;;;;;;5037050;28;20018;-46
2022/01/29 03:05:24;;;;;;;2.33;1.60;;;21.70;34.20;;;;;;5047830;28;20063;-47
2022/01/29 03:07:50;;;;;;;1.80;1.60;;;21.70;34.20;;;;;;5036862;28;20107;-46
2022/01/29 03:10:16;;;;;;;2.10;1.65;;;21.70;34.20;;;;;;5054452;28;20056;-47
2022/01/29 03:12:42;;;;;;;1.95;1.48;;;21.70;34.20;;;;;;5055298;28;20021;-44
2022/01/29 03:15:09;;;;;;;1.40;1.30;;;21.70;34.20;;;;;;5044982;28;20344;-43
2022/01/29 03:17:35;;;;;;;2.72;1.70;;;21.70;34.30;;;;;;5056058;28;20021;-46
2022/01/29 03:20:03;;;;;;;1.98;1.45;;;21.60;34.20;;;;;;5037125;28;20132;-45
2022/01/29 03:22:29;;;;;;;1.55;1.40;;;21.60;34.30;;;;;;5036010;28;20453;-47
2022/01/29 03:24:54;;;;;;;2.15;1.60;;;21.70;34.30;;;;;;5051516;28;20021;-43
2022/01/29 03:27:20;;;;;;;2.17;1.50;;;21.60;34.30;;;;;;5036144;28;20447;-51
2022/01/29 03:29:46;;;;;;;1.42;1.30;;;21.60;34.30;;;;;;5056025;28;20029;-48
2022/01/29 03:32:12;;;;;;;1.75;1.27;;;21.60;34.30;;;;;;5056467;28;20025;-44
2022/01/29 03:34:38;;;;;;;1.40;1.27;;;21.60;34.30;;;;;;5038775;28;20103;-43
2022/01/29 03:37:04;;;;;;;1.83;1.60;;;21.60;34.40;;;;;;5036349;28;20029;-45
2022/01/29 03:39:30;;;;;;;1.65;1.50;;;21.60;34.40;;;;;;5035879;28;20033;-45
2022/01/29 03:42:02;;;;;;;1.42;1.30;;;21.60;34.40;;;;;;5036007;28;20056;-46
2022/01/29 03:44:28;;;;;;;1.30;1.20;;;21.60;34.40;;;;;;5044145;28;20351;-45
2022/01/29 03:46:54;;;;;;;1.52;1.30;;;21.60;34.50;;;;;;5056225;28;20104;-58
2022/01/29 03:49:20;;;;;;;1.98;1.20;;;21.60;34.50;;;;;;5037845;28;20544;-50
2022/01/29 03:51:45;;;;;;;1.73;1.42;;;21.60;34.50;;;;;;5056066;28;20413;-48
2022/01/29 03:54:11;;;;;;;1.20;1.10;;;21.60;34.50;;;;;;5068036;28;20020;-45
2022/01/29 03:56:37;;;;;;;1.58;1.20;;;21.60;34.50;;;;;;5075648;28;20043;-48
2022/01/29 03:59:03;;;;;;;1.27;1.15;;;21.60;35.10;;;;;;5047201;28;20040;-48
2022/01/29 04:01:29;;;;;;;1.58;1.25;;;21.50;34.50;;;;;;5048413;28;20336;-51
2022/01/29 04:03:55;;;;;;;1.98;1.40;;;21.60;34.50;;;;;;5054806;28;20036;-50
2022/01/29 04:06:21;;;;;;;2.17;1.42;;;21.60;34.60;;;;;;5056071;28;20104;-50
2022/01/29 04:08:47;;;;;;;1.00;0.90;;;21.50;34.50;;;;;;5037338;28;20138;-47
2022/01/29 04:11:14;;;;;;;1.20;1.10;;;21.50;34.60;;;;;;5046737;28;20037;-44
2022/01/29 04:13:43;;;;;;;1.40;1.15;;;21.50;34.60;;;;;;5037150;28;20195;-48
2022/01/29 04:16:09;;;;;;;1.95;1.20;;;21.50;34.60;;;;;;5048509;28;20458;-45
2022/01/29 04:18:36;;;;;;;1.55;1.13;;;21.50;34.60;;;;;;5041399;28;20450;-43
2022/01/29 04:21:02;;;;;;;1.30;1.00;;;21.50;34.60;;;;;;5035024;28;20029;-45
2022/01/29 04:23:28;;;;;;;1.48;0.98;;;21.50;34.70;;;;;;5044010;28;20103;-45
2022/01/29 04:25:54;;;;;;;1.48;1.20;;;21.50;34.60;;;;;;5049074;28;20049;-47
2022/01/29 04:28:24;;;;;;;1.92;1.40;;;21.50;34.70;;;;;;5045370;28;20039;-45
2022/01/29 04:30:56;;;;;;;1.30;1.20;;;21.50;34.70;;;;;;5055159;28;20367;-49
2022/01/29 04:35:48;;;;;;;1.60;1.27;;;21.50;34.70;;;;;;5035394;28;20029;-45
2022/01/29 04:38:13;;;;;;;1.58;1.27;;;21.50;34.70;;;;;;5044209;28;20036;-46
2022/01/29 04:40:40;;;;;;;1.48;1.25;;;21.50;34.70;;;;;;5054911;28;20626;-45
2022/01/29 04:43:05;;;;;;;1.52;1.10;;;21.50;34.80;;;;;;5045892;28;20035;-45
2022/01/29 04:45:32;;;;;;;1.33;1.20;;;21.50;35.40;;;;;;5036081;28;20029;-44
2022/01/29 04:47:58;;;;;;;1.48;1.38;;;21.50;34.80;;;;;;5047260;28;20036;-43
2022/01/29 04:50:24;;;;;;;1.38;1.05;;;21.50;34.90;;;;;;5034909;28;20030;-44
2022/01/29 04:52:49;;;;;;;1.45;1.10;;;21.50;34.90;;;;;;5041226;28;20100;-46
2022/01/29 04:55:15;;;;;;;2.15;1.33;;;21.50;34.90;;;;;;5055004;28;20508;-45
2022/01/29 04:57:41;;;;;;;1.70;1.50;;;21.50;34.90;;;;;;5052037;28;20100;-44
2022/01/29 05:00:21;;;;;;;1.63;1.35;;;21.40;34.90;;;;;;5055266;28;20049;-43
2022/01/29 05:02:48;;;;;;;1.50;1.33;;;21.50;35.00;;;;;;5018711;28;20467;-45
2022/01/29 05:05:14;;;;;;;1.83;1.58;;;21.40;34.90;;;;;;5034785;28;20436;-49
2022/01/29 05:07:40;;;;;;;1.58;1.30;;;21.50;35.00;;;;;;5049403;28;20032;-48
2022/01/29 05:10:06;;;;;;;1.70;1.30;;;21.40;35.00;;;;;;5054974;28;20124;-50
2022/01/29 05:12:48;;;;;;;1.80;1.33;;;21.40;35.00;;;;;;5050507;28;20119;-50
2022/01/29 05:28:43;;;;;;;1.83;1.40;;;21.40;35.20;;;;;;5048927;28;20044;-45
2022/01/29 05:31:08;;;;;;;1.42;1.30;;;21.40;35.20;;;;;;5052839;28;20029;-46
2022/01/29 05:33:34;;;;;;;2.58;1.92;;;21.40;35.20;;;;;;5039987;28;20029;-44
2022/01/29 05:36:00;;;;;;;2.15;1.63;;;21.40;35.30;;;;;;5034382;28;20144;-47
2022/01/29 05:38:27;;;;;;;1.50;1.30;;;21.40;35.30;;;;;;5048172;28;20100;-48
2022/01/29 05:40:54;;;;;;;1.98;1.48;;;21.40;35.30;;;;;;5057941;28;20029;-44
2022/01/29 05:43:20;;;;;;;2.13;1.70;;;21.40;35.30;;;;;;5052939;28;20114;-45
2022/01/29 05:45:46;;;;;;;1.75;1.38;;;21.40;35.30;;;;;;5057960;28;20052;-45
2022/01/29 05:48:11;;;;;;;2.10;1.73;;;21.40;35.40;;;;;;5037214;28;20032;-47
2022/01/29 05:50:37;;;;;;;1.90;1.33;;;21.40;35.40;;;;;;5052991;28;20021;-45
2022/01/29 05:53:03;;;;;;;1.88;1.30;;;21.40;35.40;;;;;;5047573;28;20051;-46
2022/01/29 05:55:29;;;;;;;2.38;1.70;;;21.40;35.50;;;;;;5056450;28;20103;-46
2022/01/29 05:57:55;;;;;;;1.58;1.48;;;21.40;35.50;;;;;;5056185;28;20100;-44
2022/01/29 06:00:21;;;;;;;2.20;1.33;;;21.40;35.50;;;;;;5055889;28;20024;-49
2022/01/29 06:02:46;;;;;;;1.75;1.42;;;21.30;35.40;;;;;;5057160;28;20116;-45
2022/01/29 06:05:12;;;;;;;2.30;1.50;;;21.40;35.50;;;;;;5057187;28;20390;-43
2022/01/29 06:07:38;;;;;;;1.83;1.50;;;21.40;35.50;;;;;;5044807;28;20081;-46
2022/01/29 06:10:04;;;;;;;3.15;1.35;;;21.30;35.50;;;;;;5057510;28;20067;-45
2022/01/29 06:12:30;;;;;;;1.90;1.45;;;21.40;35.60;;;;;;5055478;28;20025;-46
2022/01/29 06:14:55;;;;;;;2.50;1.60;;;21.40;35.60;;;;;;5057607;28;20020;-49
2022/01/29 06:17:21;;;;;;;1.98;1.25;;;21.30;35.60;;;;;;5041934;28;20359;-46
2022/01/29 06:19:48;;;;;;;2.40;1.50;;;21.30;35.60;;;;;;5057386;28;20424;-45
2022/01/29 06:22:15;;;;;;;1.52;1.33;;;21.30;35.60;;;;;;5043717;28;20412;-47
2022/01/29 06:24:41;;;;;;;2.05;1.58;;;21.30;35.60;;;;;;5039704;28;20032;-47
2022/01/29 06:27:07;;;;;;;3.42;1.60;;;21.30;35.70;;;;;;5054898;28;20379;-46
2022/01/29 06:29:33;;;;;;;2.13;1.58;;;21.30;35.70;;;;;;5037485;28;20125;-46
2022/01/29 06:31:59;;;;;;;2.08;1.20;;;21.30;35.70;;;;;;5037290;28;20036;-48
2022/01/29 06:34:24;;;;;;;1.88;1.40;;;21.30;35.80;;;;;;5056262;28;20020;-50
2022/01/29 06:36:50;;;;;;;1.63;1.40;;;21.30;35.80;;;;;;5042108;28;20077;-47
2022/01/29 06:39:16;;;;;;;1.70;1.30;;;21.30;35.80;;;;;;5036746;28;20037;-46
2022/01/29 06:41:42;;;;;;;1.85;1.50;;;21.30;35.80;;;;;;5037162;28;20100;-51
2022/01/29 06:44:07;;;;;;;1.60;1.50;;;21.30;35.90;;;;;;5038537;28;20025;-49
2022/01/29 06:46:33;;;;;;;2.38;1.65;;;21.30;35.90;;;;;;5041550;28;20076;-47
2022/01/29 06:48:59;;;;;;;1.73;1.55;;;21.30;35.90;;;;;;5036688;28;20030;-50
2022/01/29 06:51:25;;;;;;;1.30;1.20;;;21.30;35.90;;;;;;5047241;28;20028;-46
2022/01/29 06:53:50;;;;;;;1.27;1.10;;;21.30;35.90;;;;;;5041585;28;20030;-45
2022/01/29 06:56:16;;;;;;;1.75;1.10;;;21.30;36.60;;;;;;5037122;28;20049;-46
2022/01/29 06:58:42;;;;;;;2.35;1.40;;;21.20;35.90;;;;;;5037019;28;20124;-48
2022/01/29 07:01:08;;;;;;;1.73;1.38;;;21.30;36.00;;;;;;5045906;28;20029;-47
2022/01/29 07:03:33;;;;;;;1.85;1.20;;;21.30;36.00;;;;;;5046410;28;20052;-46
2022/01/29 07:05:59;;;;;;;2.10;1.10;;;21.30;36.10;;;;;;5052599;28;20459;-46
2022/01/29 07:08:25;;;;;;;1.42;1.30;;;21.30;36.10;;;;;;5055592;28;20052;-47
2022/01/29 07:10:51;;;;;;;1.80;1.23;;;21.30;36.10;;;;;;5052033;28;20028;-50
2022/01/29 07:13:20;;;;;;;1.77;1.25;;;21.30;36.10;;;;;;5046345;28;20109;-49
2022/01/29 07:15:45;;;;;;;1.30;1.10;;;21.30;36.20;;;;;;5035435;28;20053;-46
2022/01/29 07:18:11;;;;;;;1.20;1.00;;;21.30;36.20;;;;;;5045479;28;20021;-46
2022/01/29 07:20:37;;;;;;;1.30;1.15;;;21.30;36.20;;;;;;5049425;28;20425;-44
2022/01/29 07:23:06;;;;;;;3.00;1.50;;;21.30;36.20;;;;;;5043891;28;20025;-45
2022/01/29 07:25:32;;;;;;;1.65;0.98;;;21.30;36.90;;;;;;5037398;28;20060;-50
2022/01/29 07:27:58;;;;;;;1.42;1.08;;;21.20;36.20;;;;;;5037029;28;20040;-46
2022/01/29 07:30:25;;;;;;;1.50;0.90;;;21.20;36.30;;;;;;5041630;28;20017;-47
2022/01/29 07:32:50;;;;;;;1.55;1.08;;;21.20;36.30;;;;;;5041565;28;20111;-47
2022/01/29 07:35:16;;;;;;;1.30;0.90;;;21.20;36.30;;;;;;5055034;28;20458;-46
2022/01/29 07:37:42;;;;;;;2.80;1.02;;;21.30;36.40;;;;;;5050984;28;20044;-46
2022/01/29 07:40:08;;;;;;;1.30;0.90;;;21.20;36.40;;;;;;5039199;28;20424;-45
2022/01/29 07:42:35;;;;;;;2.80;1.15;;;21.20;36.40;;;;;;5036317;28;20017;-45
2022/01/29 07:45:01;;;;;;;2.65;1.15;;;21.20;36.50;;;;;;5055459;28;20025;-53
2022/01/29 07:47:27;;;;;;;1.60;1.33;;;21.20;36.50;;;;;;5048434;28;20079;-52
2022/01/29 07:49:52;;;;;;;2.78;1.30;;;21.20;36.50;;;;;;5042277;28;20351;-51
2022/01/29 07:52:18;;;;;;;2.08;1.25;;;21.20;36.50;;;;;;5038182;28;20040;-53
2022/01/29 07:54:44;;;;;;;2.08;1.15;;;21.20;36.70;;;;;;5044795;28;20070;-49
2022/01/29 07:57:10;;;;;;;3.40;1.38;;;21.20;36.80;;;;;;5052654;28;20024;-49
2022/01/29 07:59:35;;;;;;;5.38;1.63;;;21.20;36.80;;;;;;5052800;28;20067;-47
2022/01/29 08:02:01;;;;;;;2.20;1.30;;;21.20;36.90;;;;;;5051038;28;20021;-46
2022/01/29 08:04:27;;;;;;;2.95;1.50;;;21.30;37.00;;;;;;5051168;28;20051;-46
2022/01/29 08:06:53;;;;;;;3.75;1.25;;;21.30;36.90;;;;;;5055182;28;20063;-49
2022/01/29 08:09:19;;;;;;;3.80;1.58;;;21.40;36.90;;;;;;5052719;28;20082;-44
2022/01/29 08:11:45;;;;;;;2.60;1.20;;;21.50;36.80;;;;;;5050171;28;20021;-49
2022/01/29 08:14:11;;;;;;;4.10;1.50;;;21.60;36.80;;;;;;5024439;28;20104;-46
2022/01/29 08:16:36;;;;;;;3.20;1.40;;;21.70;36.70;;;;;;5038012;28;20133;-47
2022/01/29 08:19:02;;;;;;;2.85;1.20;;;21.80;36.70;;;;;;5044750;28;20022;-44
2022/01/29 08:21:28;;;;;;;4.38;1.20;;;21.80;36.60;;;;;;5047472;28;20458;-46
2022/01/29 08:23:54;;;;;;;2.38;1.08;;;22.00;36.60;;;;;;5048627;28;20024;-44
2022/01/29 08:26:19;;;;;;;4.38;1.38;;;22.10;36.50;;;;;;5055269;28;20033;-44
2022/01/29 08:28:45;;;;;;;1.92;1.00;;;22.10;36.40;;;;;;5042475;28;20028;-45
2022/01/29 08:31:11;;;;;;;1.95;1.13;;;22.20;36.40;;;;;;5035249;28;20025;-47
2022/01/29 08:33:38;;;;;;;1.73;1.00;;;22.30;36.30;;;;;;5040059;28;20033;-50
2022/01/29 08:36:04;;;;;;;2.78;0.88;;;22.40;36.30;;;;;;5047191;28;20445;-44
2022/01/29 08:38:30;;;;;;;1.65;0.95;;;22.50;36.20;;;;;;5050571;28;20025;-45
2022/01/29 08:40:58;;;;;;;2.45;0.82;;;22.60;36.20;;;;;;5053886;28;20012;-44
2022/01/29 08:43:24;;;;;;;1.95;0.85;;;22.60;36.10;;;;;;5052868;28;20432;-47
2022/01/29 08:45:51;;;;;;;2.35;1.10;;;22.70;36.10;;;;;;5046203;28;20182;-48
2022/01/29 08:48:18;;;;;;;2.05;1.00;;;22.70;36.10;;;;;;5027159;28;20041;-47
2022/01/29 08:50:43;;;;;;;1.55;1.00;;;22.80;36.10;;;;;;5035498;28;20104;-50
2022/01/29 08:53:10;;;;;;;2.90;1.17;;;22.80;36.00;;;;;;5035786;28;20063;-50
2022/01/29 08:55:37;;;;;;;1.80;0.82;;;22.90;36.00;;;;;;5044475;28;20448;-52
2022/01/29 08:58:08;;;;;;;1.35;0.80;;;23.00;36.00;;;;;;5054357;28;20107;-49
2022/01/29 09:00:35;;;;;;;1.50;0.82;;;23.10;36.00;;;;;;5040974;28;20057;-46
2022/01/29 09:03:01;;;;;;;1.45;0.98;;;23.10;35.90;;;;;;5037073;28;20324;-51
2022/01/29 09:05:27;;;;;;;2.08;0.90;;;23.20;36.00;;;;;;5046163;28;20063;-52
2022/01/29 09:07:54;;;;;;;1.40;0.70;;;23.20;35.90;;;;;;5038865;28;20053;-49
2022/01/29 09:10:19;;;;;;;1.65;0.90;;;23.30;35.90;;;;;;5043121;28;20128;-51
2022/01/29 09:12:45;;;;;;;2.13;0.82;;;23.30;35.90;;;;;;5039981;28;20100;-49
2022/01/29 09:15:11;;;;;;;0.88;0.68;;;23.40;35.90;;;;;;5040206;28;20332;-47
2022/01/29 09:17:39;;;;;;;1.65;0.80;;;23.40;36.50;;;;;;5043285;28;20021;-45
2022/01/29 09:20:10;;;;;;;2.03;0.60;;;23.40;35.80;;;;;;5052908;28;20036;-51
2022/01/29 09:22:37;;;;;;;2.20;0.70;;;23.50;35.90;;;;;;5054554;28;20119;-46
2022/01/29 09:25:03;;;;;;;3.85;0.98;;;23.50;35.80;;;;;;5056434;28;20482;-44
2022/01/29 09:27:29;;;;;;;1.88;0.70;;;23.50;35.80;;;;;;5056101;28;20024;-47
2022/01/29 09:29:55;;;;;;;1.58;0.70;;;23.60;35.80;;;;;;5038601;28;20048;-45
2022/01/29 09:32:20;;;;;;;2.25;0.90;;;23.60;35.70;;;;;;5058013;28;20445;-50
2022/01/29 09:34:46;;;;;;;1.48;0.60;;;23.70;35.70;;;;;;5039328;28;20045;-46
2022/01/29 09:37:13;;;;;;;1.45;0.60;;;23.70;35.70;;;;;;5039050;28;20029;-46
2022/01/29 09:39:38;;;;;;;1.02;0.47;;;23.70;35.60;;;;;;5056612;28;20029;-46
2022/01/29 09:42:05;;;;;;;2.08;0.60;;;23.70;35.60;;;;;;5055994;28;20505;-47
2022/01/29 09:44:34;;;;;;;1.45;0.82;;;23.80;35.60;;;;;;5040531;28;20034;-51
2022/01/29 09:47:00;;;;;;;0.93;0.52;;;23.80;35.60;;;;;;5053285;28;20040;-49
2022/01/29 09:49:32;;;;;;;1.88;0.70;;;23.90;35.60;;;;;;5042930;28;20079;-50
2022/01/29 09:51:58;;;;;;;2.33;0.77;;;23.90;35.60;;;;;;5045770;28;20021;-49
2022/01/29 09:54:23;;;;;;;1.52;0.68;;;23.90;35.80;;;;;;5051508;28;20495;-47
2022/01/29 09:56:49;;;;;;;2.97;0.80;;;23.90;35.90;;;;;;5039052;28;20060;-47
2022/01/29 09:59:15;;;;;;;2.10;0.57;;;24.00;35.90;;;;;;5039300;28;20036;-47
2022/01/29 10:01:40;;;;;;;1.02;0.68;;;23.90;35.90;;;;;;5050713;28;20029;-55
2022/01/29 10:04:07;;;;;;;1.85;0.52;;;23.90;35.90;;;;;;5043426;28;20025;-51
2022/01/29 10:06:35;;;;;;;1.38;0.60;;;23.90;35.90;;;;;;5020196;28;20451;-49
2022/01/29 10:09:06;;;;;;;3.50;0.65;;;24.00;36.00;;;;;;5046573;28;20067;-51
2022/01/29 10:11:32;;;;;;;3.35;0.80;;;24.00;36.00;;;;;;5047923;28;20404;-51
2022/01/29 10:14:00;;;;;;;1.65;0.60;;;24.00;36.00;;;;;;5037440;28;20116;-46
2022/01/29 10:16:28;;;;;;;5.72;0.80;;;24.10;36.10;;;;;;5047459;28;20163;-48
2022/01/29 10:19:13;;;;;;;1.38;0.60;;;24.10;36.10;;;;;;5038245;28;20029;-57
2022/01/29 10:21:47;;;;;;;2.72;0.73;;;24.10;36.00;;;;;;5052878;28;20389;-53
2022/01/29 10:24:21;;;;;;;2.83;0.70;;;24.20;36.10;;;;;;5049109;28;20033;-52
2022/01/29 10:26:49;;;;;;;1.23;0.60;;;24.20;36.10;;;;;;5038255;28;20029;-50
2022/01/29 10:29:35;;;;;;;1.17;0.65;;;24.20;36.10;;;;;;5038087;28;20090;-56
2022/01/29 10:32:02;;;;;;;2.55;0.70;;;24.20;36.00;;;;;;5054035;28;20111;-50
2022/01/29 10:34:31;;;;;;;0.68;0.45;;;24.30;36.10;;;;;;5048788;28;20067;-53
2022/01/29 10:37:20;;;;;;;2.08;0.80;;;24.30;36.00;;;;;;5040733;28;20136;-48
2022/01/29 10:39:51;;;;;;;2.00;0.70;;;24.30;35.90;;;;;;5049299;28;20095;-48
2022/01/29 10:42:22;;;;;;;0.73;0.47;;;24.30;36.00;;;;;;5040124;28;20444;-50
2022/01/29 10:44:54;;;;;;;0.70;0.40;;;24.30;36.00;;;;;;5041333;28;20369;-46
2022/01/29 10:47:19;;;;;;;0.98;0.50;;;24.30;36.00;;;;;;5036687;28;20032;-52
2022/01/29 10:49:58;;;;;;;1.10;0.43;;;24.30;36.00;;;;;;5039189;28;20029;-57
2022/01/29 10:52:29;;;;;;;0.90;0.40;;;24.30;35.90;;;;;;5050087;28;20036;-59
2022/01/29 10:55:00;;;;;;;0.93;0.60;;;24.30;35.90;;;;;;5023598;28;20037;-54
2022/01/29 10:57:41;;;;;;;0.77;0.50;;;24.40;35.90;;;;;;5040928;28;20029;-55
2022/01/29 11:00:22;;;;;;;1.17;0.65;;;24.40;35.90;;;;;;5038712;28;20056;-53
2022/01/29 11:02:50;;;;;;;2.17;0.82;;;24.30;35.90;;;;;;5051165;28;20462;-52
2022/01/29 11:05:16;;;;;;;0.98;0.43;;;24.30;35.90;;;;;;5040589;28;20029;-47
2022/01/29 11:07:46;;;;;;;1.35;0.60;;;24.30;36.00;;;;;;5046449;28;20025;-50
2022/01/29 11:10:12;;;;;;;1.92;0.70;;;24.20;35.90;;;;;;5043195;28;20428;-55
2022/01/29 11:12:45;;;;;;;1.63;0.60;;;24.20;35.90;;;;;;5043514;28;20034;-52
2022/01/29 11:15:14;;;;;;;0.63;0.37;;;24.10;35.90;;;;;;5038330;28;20030;-47
2022/01/29 11:17:40;;;;;;;0.40;0.32;;;24.10;35.90;;;;;;5039573;28;20108;-48
2022/01/29 11:20:06;;;;;;;1.33;0.60;;;24.10;35.90;;;;;;5036099;28;20029;-52
2022/01/29 11:22:40;;;;;;;1.75;0.55;;;24.00;35.90;;;;;;5041749;28;20064;-51
2022/01/29 11:25:09;;;;;;;1.58;0.57;;;24.00;36.00;;;;;;5036890;28;20460;-47
2022/01/29 11:27:37;;;;;;;1.65;0.65;;;23.90;36.10;;;;;;5040775;28;20022;-51
2022/01/29 11:30:09;;;;;;;2.35;0.60;;;23.80;36.20;;;;;;5036122;28;20432;-49
2022/01/29 11:32:45;;;;;;;1.98;0.50;;;23.70;36.30;;;;;;5046728;28;20086;-47
2022/01/29 11:35:30;;;;;;;1.45;0.60;;;23.70;36.40;;;;;;5046701;28;20448;-48
2022/01/29 11:38:01;;;;;;;1.08;0.40;;;23.60;36.40;;;;;;5048053;28;20025;-48
2022/01/29 11:40:33;;;;;;;0.75;0.50;;;23.50;36.50;;;;;;5044585;28;20359;-46
2022/01/29 11:43:04;;;;;;;0.77;0.50;;;23.50;36.60;;;;;;5044351;28;20091;-52
2022/01/29 11:45:44;;;;;;;1.27;0.68;;;23.50;36.70;;;;;;5047579;28;20037;-47
2022/01/29 11:48:31;;;;;;;1.88;0.55;;;23.40;36.70;;;;;;5039929;28;20044;-52
2022/01/29 11:51:02;;;;;;;1.55;0.70;;;23.40;36.80;;;;;;5035412;28;20466;-49
2022/01/29 11:53:45;;;;;;;1.10;0.40;;;23.40;36.90;;;;;;5038378;28;20048;-53
2022/01/29 11:56:32;;;;;;;1.35;0.60;;;23.40;37.00;;;;;;5041507;28;20128;-56
2022/01/29 11:59:20;;;;;;;1.85;0.63;;;23.40;37.10;;;;;;5042042;28;20029;-49
2022/01/29 12:01:46;;;;;;;2.17;0.70;;;23.40;37.20;;;;;;5035607;28;20041;-51
2022/01/29 12:04:12;;;;;;;1.58;0.73;;;23.40;37.40;;;;;;5035067;28;20048;-48
2022/01/29 12:07:11;;;;;;;0.80;0.52;;;23.40;37.40;;;;;;5039876;28;20048;-50
2022/01/29 12:09:48;;;;;;;1.30;0.50;;;23.50;37.50;;;;;;5036282;28;20082;-49
2022/01/29 12:12:17;;;;;;;1.42;0.50;;;23.50;37.60;;;;;;5041951;28;20044;-52
2022/01/29 12:14:44;;;;;;;1.40;0.50;;;23.60;37.50;;;;;;5045318;28;20036;-53
2022/01/29 12:17:11;;;;;;;1.73;0.50;;;23.60;37.40;;;;;;5042341;28;20029;-51
2022/01/29 12:19:41;;;;;;;0.88;0.50;;;23.60;37.30;;;;;;5050360;28;20021;-51
2022/01/29 12:22:23;;;;;;;1.55;0.60;;;23.70;37.30;;;;;;5041435;28;20021;-48
2022/01/29 12:24:57;;;;;;;0.70;0.32;;;23.70;37.20;;;;;;5039191;28;20035;-53
2022/01/29 12:27:24;;;;;;;1.85;0.50;;;23.80;37.30;;;;;;5037714;28;20071;-57
2022/01/29 12:29:50;;;;;;;0.80;0.50;;;23.80;37.40;;;;;;5049697;28;20021;-53
2022/01/29 12:32:18;;;;;;;0.88;0.43;;;23.90;37.40;;;;;;5050896;28;20026;-53
2022/01/29 12:34:57;;;;;;;0.88;0.40;;;23.90;37.50;;;;;;5038549;28;20044;-55
2022/01/29 12:37:23;;;;;;;1.20;0.43;;;23.90;37.40;;;;;;5038426;28;20041;-49
2022/01/29 12:39:49;;;;;;;0.55;0.30;;;24.00;37.30;;;;;;5040600;28;20083;-51
2022/01/29 12:45:05;;;;;;;1.25;0.57;;;24.00;37.20;;;;;;5036284;28;20029;-57
2022/01/29 12:47:33;;;;;;;0.82;0.40;;;24.10;37.10;;;;;;5043370;28;20360;-53
2022/01/29 12:49:59;;;;;;;1.33;0.50;;;24.10;37.10;;;;;;5043523;28;20381;-52
2022/01/29 12:52:28;;;;;;;1.52;0.40;;;24.10;37.10;;;;;;5044379;28;20121;-56
2022/01/29 12:54:59;;;;;;;1.10;0.32;;;24.10;37.10;;;;;;5048791;28;20049;-52
2022/01/29 12:57:44;;;;;;;0.55;0.40;;;24.10;37.00;;;;;;5047053;28;20038;-52
2022/01/29 13:00:18;;;;;;;0.77;0.50;;;24.10;36.90;;;;;;5042365;28;20055;-55
2022/01/29 13:02:45;;;;;;;0.50;0.30;;;24.10;36.80;;;;;;5034069;28;20021;-50
2022/01/29 13:05:12;;;;;;;0.77;0.20;;;24.10;36.70;;;;;;5042116;28;20056;-57
2022/01/29 13:07:40;;;;;;;0.95;0.43;;;24.10;36.70;;;;;;5044797;28;20076;-52
2022/01/29 13:10:08;;;;;;;0.85;0.40;;;24.20;36.70;;;;;;5041342;28;20047;-58